sensor_id;sensor_type;location;lat;lon;timestamp;P1;durP1;ratioP1;P2;durP2;ratioP2
53269;SDS011;39159;45.634;9.420;2022-10-16T00:00:39;99.93;;;64.13;;
53269;SDS011;39159;45.634;9.420;2022-10-16T00:03:06;65.32;;;42.90;;
53269;SDS011;39159;45.634;9.420;2022-10-16T00:05:33;63.90;;;36.92;;
53269;SDS011;39159;45.634;9.420;2022-10-16T00:08:03;70.72;;;45.45;;
53269;SDS011;39159;45.634;9.420;2022-10-16T00:10:29;67.88;;;40.45;;
53269;SDS011;39159;45.634;9.420;2022-10-16T00:12:54;69.43;;;41.50;;
53269;SDS011;39159;45.634;9.420;2022-10-16T00:15:20;56.72;;;36.85;;
53269;SDS011;39159;45.634;9.420;2022-10-16T00:17:45;54.25;;;33.67;;
53269;SDS011;39159;45.634;9.420;2022-10-16T00:20:11;59.70;;;37.05;;
53269;SDS011;39159;45.634;9.420;2022-10-16T00:22:36;56.95;;;36.50;;
53269;SDS011;39159;45.634;9.420;2022-10-16T00:25:01;57.25;;;34.95;;
53269;SDS011;39159;45.634;9.420;2022-10-16T00:27:27;58.35;;;35.58;;
53269;SDS011;39159;45.634;9.420;2022-10-16T00:29:53;60.08;;;35.35;;
53269;SDS011;39159;45.634;9.420;2022-10-16T00:32:18;55.92;;;35.13;;
53269;SDS011;39159;45.634;9.420;2022-10-16T00:34:44;61.30;;;35.72;;
53269;SDS011;39159;45.634;9.420;2022-10-16T00:37:10;55.40;;;33.30;;
53269;SDS011;39159;45.634;9.420;2022-10-16T00:39:36;62.28;;;39.45;;
53269;SDS011;39159;45.634;9.420;2022-10-16T00:42:02;57.08;;;36.08;;
53269;SDS011;39159;45.634;9.420;2022-10-16T00:47:09;50.63;;;31.55;;
53269;SDS011;39159;45.634;9.420;2022-10-16T00:49:37;57.50;;;35.33;;
53269;SDS011;39159;45.634;9.420;2022-10-16T00:52:03;57.58;;;37.38;;
53269;SDS011;39159;45.634;9.420;2022-10-16T00:54:30;57.10;;;35.20;;
53269;SDS011;39159;45.634;9.420;2022-10-16T00:56:58;55.53;;;35.17;;
53269;SDS011;39159;45.634;9.420;2022-10-16T01:01:53;50.30;;;32.72;;
53269;SDS011;39159;45.634;9.420;2022-10-16T01:04:20;55.55;;;35.72;;
53269;SDS011;39159;45.634;9.420;2022-10-16T01:06:50;52.28;;;33.45;;
53269;SDS011;39159;45.634;9.420;2022-10-16T01:09:21;56.25;;;35.40;;
53269;SDS011;39159;45.634;9.420;2022-10-16T01:12:00;53.10;;;33.63;;
53269;SDS011;39159;45.634;9.420;2022-10-16T01:20:12;55.90;;;32.15;;
53269;SDS011;39159;45.634;9.420;2022-10-16T01:22:57;50.88;;;32.05;;
53269;SDS011;39159;45.634;9.420;2022-10-16T01:28:18;44.20;;;29.13;;
53269;SDS011;39159;45.634;9.420;2022-10-16T01:30:50;48.58;;;29.27;;
53269;SDS011;39159;45.634;9.420;2022-10-16T01:33:22;46.38;;;29.30;;
53269;SDS011;39159;45.634;9.420;2022-10-16T01:35:54;46.85;;;29.25;;
53269;SDS011;39159;45.634;9.420;2022-10-16T01:38:29;44.58;;;29.58;;
53269;SDS011;39159;45.634;9.420;2022-10-16T01:41:08;45.53;;;28.23;;
53269;SDS011;39159;45.634;9.420;2022-10-16T01:43:38;45.30;;;29.90;;
53269;SDS011;39159;45.634;9.420;2022-10-16T01:46:08;47.13;;;29.20;;
53269;SDS011;39159;45.634;9.420;2022-10-16T01:48:35;42.15;;;26.95;;
53269;SDS011;39159;45.634;9.420;2022-10-16T01:51:20;44.80;;;28.38;;
53269;SDS011;39159;45.634;9.420;2022-10-16T01:53:48;48.72;;;28.25;;
53269;SDS011;39159;45.634;9.420;2022-10-16T01:56:18;44.22;;;27.30;;
53269;SDS011;39159;45.634;9.420;2022-10-16T01:58:49;43.03;;;26.90;;
53269;SDS011;39159;45.634;9.420;2022-10-16T02:01:24;45.67;;;27.42;;
53269;SDS011;39159;45.634;9.420;2022-10-16T02:03:53;38.72;;;25.75;;
53269;SDS011;39159;45.634;9.420;2022-10-16T02:06:22;40.05;;;26.25;;
53269;SDS011;39159;45.634;9.420;2022-10-16T02:08:47;41.83;;;26.65;;
53269;SDS011;39159;45.634;9.420;2022-10-16T02:11:13;39.53;;;25.33;;
53269;SDS011;39159;45.634;9.420;2022-10-16T02:13:43;40.28;;;25.98;;
53269;SDS011;39159;45.634;9.420;2022-10-16T02:16:16;44.47;;;26.65;;
53269;SDS011;39159;45.634;9.420;2022-10-16T02:18:42;38.17;;;24.90;;
53269;SDS011;39159;45.634;9.420;2022-10-16T02:21:19;49.13;;;29.77;;
53269;SDS011;39159;45.634;9.420;2022-10-16T02:26:54;38.58;;;25.52;;
53269;SDS011;39159;45.634;9.420;2022-10-16T02:29:27;37.92;;;24.63;;
53269;SDS011;39159;45.634;9.420;2022-10-16T02:31:58;35.45;;;24.45;;
53269;SDS011;39159;45.634;9.420;2022-10-16T02:34:26;37.40;;;24.75;;
53269;SDS011;39159;45.634;9.420;2022-10-16T02:36:53;38.90;;;24.92;;
53269;SDS011;39159;45.634;9.420;2022-10-16T02:39:21;39.13;;;25.45;;
53269;SDS011;39159;45.634;9.420;2022-10-16T02:41:47;38.97;;;23.90;;
53269;SDS011;39159;45.634;9.420;2022-10-16T02:44:13;37.03;;;24.35;;
53269;SDS011;39159;45.634;9.420;2022-10-16T02:46:38;40.88;;;24.00;;
53269;SDS011;39159;45.634;9.420;2022-10-16T02:49:04;41.25;;;25.40;;
53269;SDS011;39159;45.634;9.420;2022-10-16T02:51:29;41.88;;;25.30;;
53269;SDS011;39159;45.634;9.420;2022-10-16T02:53:55;38.60;;;24.27;;
53269;SDS011;39159;45.634;9.420;2022-10-16T02:56:20;35.58;;;24.00;;
53269;SDS011;39159;45.634;9.420;2022-10-16T02:58:45;35.83;;;24.17;;
53269;SDS011;39159;45.634;9.420;2022-10-16T03:01:11;43.25;;;25.67;;
53269;SDS011;39159;45.634;9.420;2022-10-16T03:03:37;39.85;;;25.15;;
53269;SDS011;39159;45.634;9.420;2022-10-16T03:06:03;38.53;;;25.40;;
53269;SDS011;39159;45.634;9.420;2022-10-16T03:08:29;39.17;;;23.95;;
53269;SDS011;39159;45.634;9.420;2022-10-16T03:10:54;38.97;;;24.52;;
53269;SDS011;39159;45.634;9.420;2022-10-16T03:13:20;36.55;;;24.10;;
53269;SDS011;39159;45.634;9.420;2022-10-16T03:15:45;38.80;;;24.05;;
53269;SDS011;39159;45.634;9.420;2022-10-16T03:18:11;36.10;;;23.77;;
53269;SDS011;39159;45.634;9.420;2022-10-16T03:20:36;38.80;;;23.77;;
53269;SDS011;39159;45.634;9.420;2022-10-16T03:23:02;37.35;;;23.88;;
53269;SDS011;39159;45.634;9.420;2022-10-16T03:25:28;35.53;;;23.88;;
53269;SDS011;39159;45.634;9.420;2022-10-16T03:27:54;33.60;;;23.33;;
53269;SDS011;39159;45.634;9.420;2022-10-16T03:30:19;38.80;;;24.67;;
53269;SDS011;39159;45.634;9.420;2022-10-16T03:32:45;34.72;;;23.90;;
53269;SDS011;39159;45.634;9.420;2022-10-16T03:35:11;35.42;;;23.77;;
53269;SDS011;39159;45.634;9.420;2022-10-16T03:37:37;37.53;;;24.08;;
53269;SDS011;39159;45.634;9.420;2022-10-16T03:40:02;40.00;;;25.52;;
53269;SDS011;39159;45.634;9.420;2022-10-16T03:42:28;36.40;;;24.80;;
53269;SDS011;39159;45.634;9.420;2022-10-16T03:44:54;37.72;;;23.83;;
53269;SDS011;39159;45.634;9.420;2022-10-16T03:47:19;36.35;;;24.27;;
53269;SDS011;39159;45.634;9.420;2022-10-16T03:49:47;40.55;;;23.75;;
53269;SDS011;39159;45.634;9.420;2022-10-16T03:52:13;36.58;;;23.98;;
53269;SDS011;39159;45.634;9.420;2022-10-16T03:54:38;37.83;;;24.50;;
53269;SDS011;39159;45.634;9.420;2022-10-16T03:57:04;33.00;;;22.73;;
53269;SDS011;39159;45.634;9.420;2022-10-16T03:59:29;35.58;;;24.05;;
53269;SDS011;39159;45.634;9.420;2022-10-16T04:01:55;38.08;;;24.23;;
53269;SDS011;39159;45.634;9.420;2022-10-16T04:04:20;39.00;;;24.85;;
53269;SDS011;39159;45.634;9.420;2022-10-16T04:06:45;38.88;;;25.55;;
53269;SDS011;39159;45.634;9.420;2022-10-16T04:09:11;36.15;;;24.08;;
53269;SDS011;39159;45.634;9.420;2022-10-16T04:11:36;39.38;;;25.08;;
53269;SDS011;39159;45.634;9.420;2022-10-16T04:14:02;38.83;;;23.48;;
53269;SDS011;39159;45.634;9.420;2022-10-16T04:16:27;36.30;;;23.83;;
53269;SDS011;39159;45.634;9.420;2022-10-16T04:18:53;36.60;;;24.08;;
53269;SDS011;39159;45.634;9.420;2022-10-16T04:21:18;36.80;;;23.42;;
53269;SDS011;39159;45.634;9.420;2022-10-16T04:23:44;35.83;;;22.25;;
53269;SDS011;39159;45.634;9.420;2022-10-16T04:26:09;35.75;;;23.98;;
53269;SDS011;39159;45.634;9.420;2022-10-16T04:28:35;36.97;;;23.90;;
53269;SDS011;39159;45.634;9.420;2022-10-16T04:31:03;34.78;;;22.90;;
53269;SDS011;39159;45.634;9.420;2022-10-16T04:33:29;35.40;;;22.58;;
53269;SDS011;39159;45.634;9.420;2022-10-16T04:35:58;32.28;;;22.67;;
53269;SDS011;39159;45.634;9.420;2022-10-16T04:38:25;38.28;;;23.48;;
53269;SDS011;39159;45.634;9.420;2022-10-16T04:40:50;41.30;;;22.75;;
53269;SDS011;39159;45.634;9.420;2022-10-16T04:43:16;34.90;;;22.45;;
53269;SDS011;39159;45.634;9.420;2022-10-16T04:45:42;35.45;;;22.92;;
53269;SDS011;39159;45.634;9.420;2022-10-16T04:48:07;35.17;;;22.75;;
53269;SDS011;39159;45.634;9.420;2022-10-16T04:50:32;37.50;;;23.00;;
53269;SDS011;39159;45.634;9.420;2022-10-16T04:52:58;36.80;;;23.60;;
53269;SDS011;39159;45.634;9.420;2022-10-16T04:55:24;33.85;;;21.80;;
53269;SDS011;39159;45.634;9.420;2022-10-16T04:57:49;37.63;;;22.35;;
53269;SDS011;39159;45.634;9.420;2022-10-16T05:00:14;34.00;;;22.33;;
53269;SDS011;39159;45.634;9.420;2022-10-16T05:02:40;32.15;;;21.15;;
53269;SDS011;39159;45.634;9.420;2022-10-16T05:05:05;31.75;;;21.08;;
53269;SDS011;39159;45.634;9.420;2022-10-16T05:07:32;33.53;;;20.73;;
53269;SDS011;39159;45.634;9.420;2022-10-16T05:09:57;31.35;;;21.05;;
53269;SDS011;39159;45.634;9.420;2022-10-16T05:12:22;33.85;;;21.45;;
53269;SDS011;39159;45.634;9.420;2022-10-16T05:14:48;30.80;;;20.83;;
53269;SDS011;39159;45.634;9.420;2022-10-16T05:17:13;28.88;;;21.20;;
53269;SDS011;39159;45.634;9.420;2022-10-16T05:19:39;31.52;;;21.77;;
53269;SDS011;39159;45.634;9.420;2022-10-16T05:22:04;31.58;;;21.27;;
53269;SDS011;39159;45.634;9.420;2022-10-16T05:24:30;28.55;;;18.95;;
53269;SDS011;39159;45.634;9.420;2022-10-16T05:26:55;30.83;;;20.88;;
53269;SDS011;39159;45.634;9.420;2022-10-16T05:29:21;31.00;;;21.85;;
53269;SDS011;39159;45.634;9.420;2022-10-16T05:31:49;35.28;;;22.02;;
53269;SDS011;39159;45.634;9.420;2022-10-16T05:34:15;36.85;;;22.05;;
53269;SDS011;39159;45.634;9.420;2022-10-16T05:36:41;31.48;;;21.55;;
53269;SDS011;39159;45.634;9.420;2022-10-16T05:39:06;34.17;;;22.85;;
53269;SDS011;39159;45.634;9.420;2022-10-16T05:41:32;33.13;;;22.35;;
53269;SDS011;39159;45.634;9.420;2022-10-16T05:43:58;36.00;;;24.13;;
53269;SDS011;39159;45.634;9.420;2022-10-16T05:46:23;31.92;;;22.20;;
53269;SDS011;39159;45.634;9.420;2022-10-16T05:48:51;34.70;;;23.20;;
53269;SDS011;39159;45.634;9.420;2022-10-16T05:51:18;37.88;;;23.20;;
53269;SDS011;39159;45.634;9.420;2022-10-16T05:53:43;36.40;;;23.30;;
53269;SDS011;39159;45.634;9.420;2022-10-16T05:56:09;37.53;;;22.85;;
53269;SDS011;39159;45.634;9.420;2022-10-16T05:58:36;39.75;;;23.55;;
53269;SDS011;39159;45.634;9.420;2022-10-16T06:01:03;31.65;;;21.65;;
53269;SDS011;39159;45.634;9.420;2022-10-16T06:03:33;35.63;;;24.25;;
53269;SDS011;39159;45.634;9.420;2022-10-16T06:05:58;36.17;;;23.10;;
53269;SDS011;39159;45.634;9.420;2022-10-16T06:08:24;35.25;;;22.75;;
53269;SDS011;39159;45.634;9.420;2022-10-16T06:11:09;35.63;;;23.27;;
53269;SDS011;39159;45.634;9.420;2022-10-16T06:13:37;36.33;;;22.67;;
53269;SDS011;39159;45.634;9.420;2022-10-16T06:16:04;36.55;;;22.63;;
53269;SDS011;39159;45.634;9.420;2022-10-16T06:18:29;31.77;;;20.92;;
53269;SDS011;39159;45.634;9.420;2022-10-16T06:20:56;35.63;;;22.77;;
53269;SDS011;39159;45.634;9.420;2022-10-16T06:23:22;34.95;;;22.00;;
53269;SDS011;39159;45.634;9.420;2022-10-16T06:25:48;30.85;;;20.35;;
53269;SDS011;39159;45.634;9.420;2022-10-16T06:28:13;37.28;;;21.55;;
53269;SDS011;39159;45.634;9.420;2022-10-16T06:30:40;37.10;;;22.08;;
53269;SDS011;39159;45.634;9.420;2022-10-16T06:33:05;37.00;;;22.65;;
53269;SDS011;39159;45.634;9.420;2022-10-16T06:35:31;33.28;;;21.38;;
53269;SDS011;39159;45.634;9.420;2022-10-16T06:37:57;33.72;;;22.73;;
53269;SDS011;39159;45.634;9.420;2022-10-16T06:40:23;34.88;;;21.45;;
53269;SDS011;39159;45.634;9.420;2022-10-16T06:42:48;32.75;;;21.65;;
53269;SDS011;39159;45.634;9.420;2022-10-16T06:45:13;33.13;;;21.65;;
53269;SDS011;39159;45.634;9.420;2022-10-16T06:47:39;33.28;;;22.33;;
53269;SDS011;39159;45.634;9.420;2022-10-16T06:50:04;32.85;;;21.58;;
53269;SDS011;39159;45.634;9.420;2022-10-16T06:52:33;33.78;;;21.52;;
53269;SDS011;39159;45.634;9.420;2022-10-16T06:54:59;39.42;;;21.35;;
53269;SDS011;39159;45.634;9.420;2022-10-16T06:57:24;33.75;;;21.95;;
53269;SDS011;39159;45.634;9.420;2022-10-16T06:59:50;34.75;;;23.33;;
53269;SDS011;39159;45.634;9.420;2022-10-16T07:02:16;32.88;;;21.38;;
53269;SDS011;39159;45.634;9.420;2022-10-16T07:04:41;31.65;;;22.15;;
53269;SDS011;39159;45.634;9.420;2022-10-16T07:07:07;33.90;;;21.48;;
53269;SDS011;39159;45.634;9.420;2022-10-16T07:09:32;32.45;;;20.65;;
53269;SDS011;39159;45.634;9.420;2022-10-16T07:11:58;34.38;;;21.23;;
53269;SDS011;39159;45.634;9.420;2022-10-16T07:14:23;30.88;;;20.38;;
53269;SDS011;39159;45.634;9.420;2022-10-16T07:16:49;28.35;;;18.70;;
53269;SDS011;39159;45.634;9.420;2022-10-16T07:19:15;31.58;;;17.58;;
53269;SDS011;39159;45.634;9.420;2022-10-16T07:21:42;28.25;;;18.58;;
53269;SDS011;39159;45.634;9.420;2022-10-16T07:24:12;24.50;;;17.75;;
53269;SDS011;39159;45.634;9.420;2022-10-16T07:26:41;27.77;;;18.90;;
53269;SDS011;39159;45.634;9.420;2022-10-16T07:29:16;32.17;;;20.40;;
53269;SDS011;39159;45.634;9.420;2022-10-16T07:31:46;25.42;;;18.60;;
53269;SDS011;39159;45.634;9.420;2022-10-16T07:34:13;28.23;;;19.33;;
53269;SDS011;39159;45.634;9.420;2022-10-16T07:36:39;25.88;;;18.60;;
53269;SDS011;39159;45.634;9.420;2022-10-16T07:39:05;23.85;;;18.13;;
53269;SDS011;39159;45.634;9.420;2022-10-16T07:41:31;28.83;;;19.23;;
53269;SDS011;39159;45.634;9.420;2022-10-16T07:43:58;27.08;;;17.85;;
53269;SDS011;39159;45.634;9.420;2022-10-16T07:46:25;26.98;;;18.30;;
53269;SDS011;39159;45.634;9.420;2022-10-16T07:48:51;28.48;;;17.73;;
53269;SDS011;39159;45.634;9.420;2022-10-16T07:51:19;30.05;;;17.50;;
53269;SDS011;39159;45.634;9.420;2022-10-16T07:53:46;27.42;;;16.77;;
53269;SDS011;39159;45.634;9.420;2022-10-16T07:56:12;28.63;;;19.50;;
53269;SDS011;39159;45.634;9.420;2022-10-16T07:58:38;27.10;;;18.02;;
53269;SDS011;39159;45.634;9.420;2022-10-16T08:01:05;28.73;;;17.90;;
53269;SDS011;39159;45.634;9.420;2022-10-16T08:03:32;23.80;;;16.83;;
53269;SDS011;39159;45.634;9.420;2022-10-16T08:05:58;26.73;;;17.38;;
53269;SDS011;39159;45.634;9.420;2022-10-16T08:08:25;28.80;;;17.73;;
53269;SDS011;39159;45.634;9.420;2022-10-16T08:10:51;30.38;;;19.65;;
53269;SDS011;39159;45.634;9.420;2022-10-16T08:13:17;30.45;;;19.50;;
53269;SDS011;39159;45.634;9.420;2022-10-16T08:15:43;29.30;;;19.02;;
53269;SDS011;39159;45.634;9.420;2022-10-16T08:18:09;28.20;;;19.30;;
53269;SDS011;39159;45.634;9.420;2022-10-16T08:20:35;32.75;;;19.80;;
53269;SDS011;39159;45.634;9.420;2022-10-16T08:23:00;29.35;;;18.48;;
53269;SDS011;39159;45.634;9.420;2022-10-16T08:25:26;36.17;;;23.95;;
53269;SDS011;39159;45.634;9.420;2022-10-16T08:27:52;42.05;;;24.20;;
53269;SDS011;39159;45.634;9.420;2022-10-16T08:30:19;43.08;;;25.60;;
53269;SDS011;39159;45.634;9.420;2022-10-16T08:32:45;41.17;;;23.55;;
53269;SDS011;39159;45.634;9.420;2022-10-16T08:35:11;29.98;;;20.25;;
53269;SDS011;39159;45.634;9.420;2022-10-16T08:37:37;43.22;;;23.13;;
53269;SDS011;39159;45.634;9.420;2022-10-16T08:40:04;43.20;;;23.70;;
53269;SDS011;39159;45.634;9.420;2022-10-16T08:51:03;35.53;;;23.15;;
53269;SDS011;39159;45.634;9.420;2022-10-16T08:53:45;38.63;;;24.63;;
53269;SDS011;39159;45.634;9.420;2022-10-16T08:56:13;35.00;;;23.10;;
53269;SDS011;39159;45.634;9.420;2022-10-16T08:58:39;37.63;;;25.98;;
53269;SDS011;39159;45.634;9.420;2022-10-16T09:01:09;38.58;;;24.58;;
53269;SDS011;39159;45.634;9.420;2022-10-16T09:09:14;43.70;;;27.23;;
53269;SDS011;39159;45.634;9.420;2022-10-16T09:22:46;66.55;;;38.50;;
53269;SDS011;39159;45.634;9.420;2022-10-16T09:25:13;68.72;;;40.05;;
53269;SDS011;39159;45.634;9.420;2022-10-16T09:27:42;60.30;;;36.63;;
53269;SDS011;39159;45.634;9.420;2022-10-16T09:30:13;68.38;;;38.00;;
53269;SDS011;39159;45.634;9.420;2022-10-16T09:32:41;74.05;;;42.75;;
53269;SDS011;39159;45.634;9.420;2022-10-16T09:35:13;67.05;;;40.45;;
53269;SDS011;39159;45.634;9.420;2022-10-16T09:37:42;78.55;;;43.97;;
53269;SDS011;39159;45.634;9.420;2022-10-16T09:40:13;66.72;;;38.97;;
53269;SDS011;39159;45.634;9.420;2022-10-16T09:42:49;71.07;;;40.72;;
53269;SDS011;39159;45.634;9.420;2022-10-16T09:45:21;61.80;;;35.55;;
53269;SDS011;39159;45.634;9.420;2022-10-16T09:47:48;75.00;;;43.50;;
53269;SDS011;39159;45.634;9.420;2022-10-16T09:50:24;57.47;;;35.03;;
53269;SDS011;39159;45.634;9.420;2022-10-16T09:53:02;58.63;;;34.92;;
53269;SDS011;39159;45.634;9.420;2022-10-16T09:55:35;68.30;;;40.88;;
53269;SDS011;39159;45.634;9.420;2022-10-16T09:58:01;72.75;;;42.00;;
53269;SDS011;39159;45.634;9.420;2022-10-16T10:00:26;72.70;;;42.05;;
53269;SDS011;39159;45.634;9.420;2022-10-16T10:02:52;70.55;;;39.63;;
53269;SDS011;39159;45.634;9.420;2022-10-16T10:05:20;69.15;;;39.97;;
53269;SDS011;39159;45.634;9.420;2022-10-16T10:07:54;59.60;;;35.58;;
53269;SDS011;39159;45.634;9.420;2022-10-16T10:10:21;64.95;;;35.95;;
53269;SDS011;39159;45.634;9.420;2022-10-16T10:12:57;66.88;;;41.63;;
53269;SDS011;39159;45.634;9.420;2022-10-16T10:15:22;67.07;;;40.90;;
53269;SDS011;39159;45.634;9.420;2022-10-16T10:17:50;59.67;;;36.58;;
53269;SDS011;39159;45.634;9.420;2022-10-16T10:20:36;60.80;;;38.55;;
53269;SDS011;39159;45.634;9.420;2022-10-16T10:26:12;58.67;;;34.88;;
53269;SDS011;39159;45.634;9.420;2022-10-16T10:37:37;70.55;;;40.83;;
53269;SDS011;39159;45.634;9.420;2022-10-16T11:00:06;59.45;;;35.30;;
53269;SDS011;39159;45.634;9.420;2022-10-16T11:05:30;63.10;;;39.08;;
53269;SDS011;39159;45.634;9.420;2022-10-16T11:10:58;78.50;;;43.58;;
53269;SDS011;39159;45.634;9.420;2022-10-16T11:13:32;68.28;;;41.55;;
53269;SDS011;39159;45.634;9.420;2022-10-16T11:16:07;70.38;;;41.13;;
53269;SDS011;39159;45.634;9.420;2022-10-16T11:18:50;74.38;;;44.45;;
53269;SDS011;39159;45.634;9.420;2022-10-16T11:21:23;77.55;;;44.72;;
53269;SDS011;39159;45.634;9.420;2022-10-16T11:24:06;77.07;;;45.80;;
53269;SDS011;39159;45.634;9.420;2022-10-16T11:26:46;73.78;;;43.72;;
53269;SDS011;39159;45.634;9.420;2022-10-16T11:29:33;72.90;;;42.83;;
53269;SDS011;39159;45.634;9.420;2022-10-16T11:32:11;66.43;;;41.45;;
53269;SDS011;39159;45.634;9.420;2022-10-16T11:34:56;72.25;;;42.78;;
53269;SDS011;39159;45.634;9.420;2022-10-16T11:37:33;80.00;;;45.72;;
53269;SDS011;39159;45.634;9.420;2022-10-16T11:46:03;60.20;;;36.97;;
53269;SDS011;39159;45.634;9.420;2022-10-16T11:48:42;69.10;;;42.88;;
53269;SDS011;39159;45.634;9.420;2022-10-16T11:51:36;72.95;;;44.97;;
53269;SDS011;39159;45.634;9.420;2022-10-16T11:54:26;68.03;;;43.08;;
53269;SDS011;39159;45.634;9.420;2022-10-16T11:56:59;60.22;;;36.90;;
53269;SDS011;39159;45.634;9.420;2022-10-16T11:59:34;63.67;;;39.45;;
53269;SDS011;39159;45.634;9.420;2022-10-16T12:07:41;78.18;;;44.63;;
53269;SDS011;39159;45.634;9.420;2022-10-16T12:10:26;78.45;;;42.25;;
53269;SDS011;39159;45.634;9.420;2022-10-16T12:12:54;60.28;;;38.58;;
53269;SDS011;39159;45.634;9.420;2022-10-16T12:15:21;71.82;;;40.58;;
53269;SDS011;39159;45.634;9.420;2022-10-16T12:17:55;58.95;;;36.35;;
53269;SDS011;39159;45.634;9.420;2022-10-16T12:23:02;53.75;;;33.95;;
53269;SDS011;39159;45.634;9.420;2022-10-16T12:28:04;61.60;;;38.20;;
53269;SDS011;39159;45.634;9.420;2022-10-16T12:30:34;57.20;;;35.47;;
53269;SDS011;39159;45.634;9.420;2022-10-16T12:33:16;58.42;;;37.75;;
53269;SDS011;39159;45.634;9.420;2022-10-16T12:35:51;52.10;;;32.55;;
53269;SDS011;39159;45.634;9.420;2022-10-16T12:38:37;54.97;;;34.60;;
53269;SDS011;39159;45.634;9.420;2022-10-16T12:41:11;63.90;;;36.25;;
53269;SDS011;39159;45.634;9.420;2022-10-16T12:48:36;53.45;;;33.78;;
53269;SDS011;39159;45.634;9.420;2022-10-16T12:51:11;60.28;;;37.72;;
53269;SDS011;39159;45.634;9.420;2022-10-16T12:53:58;53.88;;;32.33;;
53269;SDS011;39159;45.634;9.420;2022-10-16T12:56:32;54.80;;;35.85;;
53269;SDS011;39159;45.634;9.420;2022-10-16T13:04:39;53.33;;;32.72;;
53269;SDS011;39159;45.634;9.420;2022-10-16T13:21:09;53.03;;;33.05;;
53269;SDS011;39159;45.634;9.420;2022-10-16T13:27:09;46.47;;;27.88;;
53269;SDS011;39159;45.634;9.420;2022-10-16T13:29:53;44.70;;;28.65;;
53269;SDS011;39159;45.634;9.420;2022-10-16T13:32:25;54.55;;;33.28;;
53269;SDS011;39159;45.634;9.420;2022-10-16T13:34:52;61.17;;;37.10;;
53269;SDS011;39159;45.634;9.420;2022-10-16T13:37:19;63.05;;;39.35;;
53269;SDS011;39159;45.634;9.420;2022-10-16T13:39:46;47.67;;;31.75;;
53269;SDS011;39159;45.634;9.420;2022-10-16T13:42:13;53.05;;;32.70;;
53269;SDS011;39159;45.634;9.420;2022-10-16T13:44:52;55.25;;;36.65;;
53269;SDS011;39159;45.634;9.420;2022-10-16T13:47:20;61.13;;;37.10;;
53269;SDS011;39159;45.634;9.420;2022-10-16T13:49:58;52.78;;;33.05;;
53269;SDS011;39159;45.634;9.420;2022-10-16T13:52:25;54.15;;;34.30;;
53269;SDS011;39159;45.634;9.420;2022-10-16T13:54:51;56.88;;;37.22;;
53269;SDS011;39159;45.634;9.420;2022-10-16T13:57:18;49.30;;;31.10;;
53269;SDS011;39159;45.634;9.420;2022-10-16T13:59:49;62.42;;;37.85;;
53269;SDS011;39159;45.634;9.420;2022-10-16T14:02:18;50.03;;;33.78;;
53269;SDS011;39159;45.634;9.420;2022-10-16T14:04:45;56.58;;;35.75;;
53269;SDS011;39159;45.634;9.420;2022-10-16T14:07:16;62.88;;;38.40;;
53269;SDS011;39159;45.634;9.420;2022-10-16T14:09:48;60.30;;;35.65;;
53269;SDS011;39159;45.634;9.420;2022-10-16T14:12:15;54.63;;;31.38;;
53269;SDS011;39159;45.634;9.420;2022-10-16T14:14:42;49.85;;;32.15;;
53269;SDS011;39159;45.634;9.420;2022-10-16T14:17:16;63.65;;;38.70;;
53269;SDS011;39159;45.634;9.420;2022-10-16T14:19:49;53.90;;;35.58;;
53269;SDS011;39159;45.634;9.420;2022-10-16T14:25:02;66.93;;;35.80;;
53269;SDS011;39159;45.634;9.420;2022-10-16T14:27:45;50.35;;;31.63;;
53269;SDS011;39159;45.634;9.420;2022-10-16T14:30:22;58.30;;;34.97;;
53269;SDS011;39159;45.634;9.420;2022-10-16T14:35:56;49.55;;;31.83;;
53269;SDS011;39159;45.634;9.420;2022-10-16T14:38:18;40.63;;;27.42;;
53269;SDS011;39159;45.634;9.420;2022-10-16T14:40:48;49.85;;;32.17;;
53269;SDS011;39159;45.634;9.420;2022-10-16T14:43:16;44.55;;;27.75;;
53269;SDS011;39159;45.634;9.420;2022-10-16T14:46:15;44.90;;;29.65;;
53269;SDS011;39159;45.634;9.420;2022-10-16T14:48:45;44.10;;;28.48;;
53269;SDS011;39159;45.634;9.420;2022-10-16T14:51:14;50.67;;;32.78;;
53269;SDS011;39159;45.634;9.420;2022-10-16T14:53:40;59.83;;;34.50;;
53269;SDS011;39159;45.634;9.420;2022-10-16T14:56:07;64.15;;;35.47;;
53269;SDS011;39159;45.634;9.420;2022-10-16T14:58:53;47.60;;;29.13;;
53269;SDS011;39159;45.634;9.420;2022-10-16T15:01:20;49.47;;;32.60;;
53269;SDS011;39159;45.634;9.420;2022-10-16T15:03:45;62.42;;;34.60;;
53269;SDS011;39159;45.634;9.420;2022-10-16T15:06:11;47.67;;;29.67;;
53269;SDS011;39159;45.634;9.420;2022-10-16T15:08:38;46.15;;;29.23;;
53269;SDS011;39159;45.634;9.420;2022-10-16T15:11:04;38.45;;;26.05;;
53269;SDS011;39159;45.634;9.420;2022-10-16T15:13:30;46.80;;;30.90;;
53269;SDS011;39159;45.634;9.420;2022-10-16T15:15:56;45.72;;;27.77;;
53269;SDS011;39159;45.634;9.420;2022-10-16T15:18:21;62.38;;;37.55;;
53269;SDS011;39159;45.634;9.420;2022-10-16T15:20:50;57.03;;;35.58;;
53269;SDS011;39159;45.634;9.420;2022-10-16T15:23:17;55.05;;;35.22;;
53269;SDS011;39159;45.634;9.420;2022-10-16T15:25:52;59.88;;;34.35;;
53269;SDS011;39159;45.634;9.420;2022-10-16T15:28:21;59.53;;;36.95;;
53269;SDS011;39159;45.634;9.420;2022-10-16T15:30:51;53.03;;;32.10;;
53269;SDS011;39159;45.634;9.420;2022-10-16T15:33:19;56.80;;;35.40;;
53269;SDS011;39159;45.634;9.420;2022-10-16T15:35:47;57.45;;;34.03;;
53269;SDS011;39159;45.634;9.420;2022-10-16T15:38:15;64.15;;;39.15;;
53269;SDS011;39159;45.634;9.420;2022-10-16T15:40:41;49.90;;;31.25;;
53269;SDS011;39159;45.634;9.420;2022-10-16T15:43:07;45.33;;;28.02;;
53269;SDS011;39159;45.634;9.420;2022-10-16T15:45:33;63.55;;;38.00;;
53269;SDS011;39159;45.634;9.420;2022-10-16T15:47:59;58.13;;;37.60;;
53269;SDS011;39159;45.634;9.420;2022-10-16T15:50:25;61.20;;;35.78;;
53269;SDS011;39159;45.634;9.420;2022-10-16T15:52:51;47.42;;;31.10;;
53269;SDS011;39159;45.634;9.420;2022-10-16T15:55:17;50.65;;;33.33;;
53269;SDS011;39159;45.634;9.420;2022-10-16T15:57:43;54.15;;;31.13;;
53269;SDS011;39159;45.634;9.420;2022-10-16T16:00:10;36.60;;;23.70;;
53269;SDS011;39159;45.634;9.420;2022-10-16T16:02:38;43.20;;;29.23;;
53269;SDS011;39159;45.634;9.420;2022-10-16T16:05:04;48.28;;;31.92;;
53269;SDS011;39159;45.634;9.420;2022-10-16T16:07:38;55.70;;;35.22;;
53269;SDS011;39159;45.634;9.420;2022-10-16T16:10:05;62.80;;;36.90;;
53269;SDS011;39159;45.634;9.420;2022-10-16T16:12:34;61.15;;;36.70;;
53269;SDS011;39159;45.634;9.420;2022-10-16T16:15:00;72.32;;;38.17;;
53269;SDS011;39159;45.634;9.420;2022-10-16T16:17:25;63.53;;;35.80;;
53269;SDS011;39159;45.634;9.420;2022-10-16T16:19:51;60.35;;;36.20;;
53269;SDS011;39159;45.634;9.420;2022-10-16T16:22:17;57.83;;;36.38;;
53269;SDS011;39159;45.634;9.420;2022-10-16T16:24:42;64.57;;;39.00;;
53269;SDS011;39159;45.634;9.420;2022-10-16T16:27:08;63.45;;;38.60;;
53269;SDS011;39159;45.634;9.420;2022-10-16T16:29:34;61.13;;;37.33;;
53269;SDS011;39159;45.634;9.420;2022-10-16T16:32:00;52.42;;;31.90;;
53269;SDS011;39159;45.634;9.420;2022-10-16T16:34:26;50.17;;;31.42;;
53269;SDS011;39159;45.634;9.420;2022-10-16T16:36:52;49.30;;;30.50;;
53269;SDS011;39159;45.634;9.420;2022-10-16T16:39:19;39.22;;;25.67;;